createdAt,value
2018-09-26T00:01:53.136Z,99.90
2018-09-26T00:04:29.203Z,99.90
2018-09-26T00:07:04.073Z,99.90
2018-09-26T00:09:39.115Z,99.90
2018-09-26T00:12:14.400Z,99.90
2018-09-26T00:14:49.902Z,99.90
2018-09-26T00:17:24.878Z,99.90
2018-09-26T00:19:59.680Z,99.90
2018-09-26T00:22:34.728Z,99.90
2018-09-26T00:25:10.325Z,99.90
2018-09-26T00:27:45.114Z,99.90
2018-09-26T00:30:20.072Z,99.90
2018-09-26T00:32:55.416Z,99.90
2018-09-26T00:35:31.035Z,99.90
2018-09-26T00:38:06.510Z,99.90
2018-09-26T00:40:42.919Z,99.90
2018-09-26T00:43:18.746Z,99.90
2018-09-26T00:45:53.693Z,99.90
2018-09-26T00:48:28.606Z,99.90
2018-09-26T00:51:03.966Z,99.90
2018-09-26T00:53:38.749Z,99.90
2018-09-26T00:56:13.627Z,99.90
2018-09-26T00:58:48.631Z,99.90
2018-09-26T01:01:23.571Z,99.90
2018-09-26T01:03:58.455Z,99.90
2018-09-26T01:06:33.547Z,99.90
2018-09-26T01:09:09.714Z,99.90
2018-09-26T01:11:44.981Z,99.90
2018-09-26T01:14:19.783Z,99.90
2018-09-26T01:16:54.690Z,99.90
2018-09-26T01:19:26.370Z,99.90
2018-09-26T01:22:01.331Z,99.90
2018-09-26T01:24:36.464Z,99.90
2018-09-26T01:27:12.055Z,99.90
2018-09-26T01:29:47.198Z,99.90
2018-09-26T01:32:22.061Z,99.90
2018-09-26T01:34:57.074Z,99.90
2018-09-26T01:37:31.902Z,99.90
2018-09-26T01:40:07.421Z,99.90
2018-09-26T01:42:42.349Z,99.90
2018-09-26T01:45:17.147Z,99.90
2018-09-26T01:47:51.960Z,99.90
2018-09-26T01:50:27.173Z,99.90
2018-09-26T01:53:02.093Z,99.90
2018-09-26T01:55:37.130Z,99.90
2018-09-26T01:58:11.972Z,99.90
2018-09-26T02:00:46.898Z,99.90
2018-09-26T02:03:21.609Z,99.90
2018-09-26T02:05:56.732Z,99.90
2018-09-26T02:08:31.800Z,99.90
2018-09-26T02:11:07.269Z,99.90
2018-09-26T02:13:42.349Z,99.90
2018-09-26T02:16:17.376Z,99.90
2018-09-26T02:18:52.195Z,99.90
2018-09-26T02:21:27.181Z,99.90
2018-09-26T02:24:02.024Z,99.90
2018-09-26T02:26:36.889Z,99.90
2018-09-26T02:29:12.896Z,99.90
2018-09-26T02:31:47.691Z,99.90
2018-09-26T02:34:22.772Z,99.90
2018-09-26T02:36:58.567Z,99.90
2018-09-26T02:39:33.645Z,99.90
2018-09-26T02:42:08.387Z,99.90
2018-09-26T02:44:43.336Z,99.90
2018-09-26T02:47:18.241Z,99.90
2018-09-26T02:49:53.181Z,99.90
2018-09-26T02:52:28.338Z,99.90
2018-09-26T02:55:03.307Z,99.90
2018-09-26T02:57:38.487Z,99.90
2018-09-26T03:00:13.390Z,99.90
2018-09-26T03:02:48.759Z,99.90
2018-09-26T03:05:23.729Z,99.90
2018-09-26T03:07:58.989Z,99.90
2018-09-26T03:10:34.690Z,99.90
2018-09-26T03:13:09.827Z,99.90
2018-09-26T03:15:44.664Z,99.90
2018-09-26T03:18:21.219Z,99.90
2018-09-26T03:20:56.111Z,99.90
2018-09-26T03:23:31.093Z,99.90
2018-09-26T03:26:06.181Z,99.90
2018-09-26T03:28:41.240Z,99.90
2018-09-26T03:31:16.046Z,99.90
2018-09-26T03:33:51.068Z,99.90
2018-09-26T03:36:26.510Z,99.90
2018-09-26T03:39:01.604Z,99.90
2018-09-26T03:41:36.655Z,99.90
2018-09-26T03:44:11.574Z,99.90
2018-09-26T03:46:46.894Z,99.90
2018-09-26T03:49:22.361Z,99.90
2018-09-26T03:51:57.654Z,99.90
2018-09-26T03:54:36.021Z,99.90
2018-09-26T03:57:10.939Z,99.90
2018-09-26T03:59:45.821Z,99.90
2018-09-26T04:02:20.747Z,99.90
2018-09-26T04:04:56.452Z,99.90
2018-09-26T04:07:31.340Z,99.90
2018-09-26T04:10:07.260Z,99.90
2018-09-26T04:12:42.484Z,99.90
2018-09-26T04:15:17.434Z,99.90
2018-09-26T04:17:52.340Z,99.90
2018-09-26T04:20:27.565Z,99.90
2018-09-26T04:23:02.751Z,99.90
2018-09-26T04:25:37.568Z,99.90
2018-09-26T04:28:12.774Z,99.90
2018-09-26T04:30:48.902Z,99.90
2018-09-26T04:33:23.926Z,99.90
2018-09-26T04:35:58.925Z,99.90
2018-09-26T04:38:34.126Z,99.90
2018-09-26T04:41:09.228Z,99.90
2018-09-26T04:43:44.826Z,99.90
2018-09-26T04:46:20.036Z,99.90
2018-09-26T04:48:55.425Z,99.90
2018-09-26T04:51:31.070Z,99.90
2018-09-26T04:54:06.577Z,99.90
2018-09-26T04:56:41.651Z,99.90
2018-09-26T04:59:17.365Z,99.90
2018-09-26T05:01:53.003Z,99.90
2018-09-26T05:04:28.053Z,99.90
2018-09-26T05:07:03.013Z,99.90
2018-09-26T05:09:38.771Z,99.90
2018-09-26T05:12:13.877Z,99.90
2018-09-26T05:14:49.231Z,99.90
2018-09-26T05:17:24.243Z,99.90
2018-09-26T05:19:53.491Z,99.90
2018-09-26T05:22:28.617Z,99.90
2018-09-26T05:25:03.936Z,99.90
2018-09-26T05:27:38.914Z,99.90
2018-09-26T05:30:14.507Z,99.90
2018-09-26T05:32:49.772Z,99.90
2018-09-26T05:35:24.888Z,99.90
2018-09-26T05:38:00.214Z,99.90
2018-09-26T05:40:37.988Z,99.90
2018-09-26T05:43:13.108Z,99.90
2018-09-26T05:45:48.839Z,99.90
2018-09-26T05:48:23.651Z,99.90
2018-09-26T05:50:58.805Z,99.90
2018-09-26T05:53:34.264Z,99.90
2018-09-26T05:56:09.472Z,99.90
2018-09-26T05:58:44.527Z,99.90
2018-09-26T06:01:19.321Z,99.90
2018-09-26T06:03:54.599Z,99.90
2018-09-26T06:06:29.842Z,99.90
2018-09-26T06:09:06.891Z,99.90
2018-09-26T06:11:42.874Z,99.90
2018-09-26T06:14:18.772Z,99.90
2018-09-26T06:16:53.830Z,99.90
2018-09-26T06:19:29.627Z,99.90
2018-09-26T06:22:04.484Z,99.90
2018-09-26T06:24:39.733Z,99.90
2018-09-26T06:27:14.926Z,99.90
2018-09-26T06:29:50.164Z,99.90
2018-09-26T06:32:24.992Z,99.90
2018-09-26T06:34:59.934Z,99.90
2018-09-26T06:37:34.909Z,99.90
2018-09-26T06:40:10.592Z,99.90
2018-09-26T06:42:45.281Z,99.90
2018-09-26T06:45:20.263Z,99.90
2018-09-26T06:47:55.525Z,99.90
2018-09-26T06:50:30.517Z,99.90
2018-09-26T06:53:05.306Z,99.90
2018-09-26T06:55:40.413Z,99.90
2018-09-26T06:58:16.241Z,99.90
2018-09-26T07:00:51.523Z,99.90
2018-09-26T07:03:26.329Z,99.90
2018-09-26T07:06:06.814Z,99.90
2018-09-26T07:08:46.186Z,99.90
2018-09-26T07:11:21.134Z,99.90
2018-09-26T07:13:56.100Z,99.90
2018-09-26T07:16:31.148Z,99.90
2018-09-26T07:19:07.004Z,99.90
2018-09-26T07:21:41.970Z,99.90
2018-09-26T07:24:16.982Z,99.90
2018-09-26T07:26:51.869Z,99.90
2018-09-26T07:29:26.625Z,99.90
2018-09-26T07:32:01.729Z,99.90
2018-09-26T07:34:37.743Z,99.90
2018-09-26T07:37:13.782Z,99.90
2018-09-26T07:39:48.723Z,99.90
2018-09-26T07:42:23.610Z,99.90
2018-09-26T07:44:58.656Z,99.90
2018-09-26T07:47:33.685Z,99.90
2018-09-26T07:50:09.145Z,99.90
2018-09-26T07:52:44.278Z,99.90
2018-09-26T07:55:19.369Z,99.90
2018-09-26T07:57:54.393Z,99.90
2018-09-26T08:00:29.370Z,99.90
2018-09-26T08:03:04.392Z,99.90
2018-09-26T08:05:39.109Z,99.90
2018-09-26T08:08:13.989Z,99.90
2018-09-26T08:10:55.531Z,99.90
2018-09-26T08:13:31.108Z,99.90
2018-09-26T08:16:06.145Z,99.90
2018-09-26T08:18:40.907Z,99.90
2018-09-26T08:21:16.011Z,99.90
2018-09-26T08:23:51.561Z,99.90
2018-09-26T08:26:26.700Z,99.90
2018-09-26T08:29:02.056Z,99.90
2018-09-26T08:31:37.110Z,99.90
2018-09-26T08:34:12.516Z,99.90
2018-09-26T08:36:46.117Z,99.90
2018-09-26T08:39:22.109Z,99.90
2018-09-26T08:41:56.967Z,99.90
2018-09-26T08:44:32.219Z,99.90
2018-09-26T08:47:07.525Z,99.90
2018-09-26T08:49:42.727Z,99.90
2018-09-26T08:52:17.755Z,99.90
2018-09-26T08:54:52.753Z,99.90
2018-09-26T08:57:27.825Z,99.90
2018-09-26T09:00:03.074Z,99.90
2018-09-26T09:02:38.031Z,99.90
2018-09-26T09:05:13.138Z,99.90
2018-09-26T09:07:49.094Z,99.90
2018-09-26T09:10:23.818Z,99.90
2018-09-26T09:12:59.267Z,99.90
2018-09-26T09:15:34.260Z,99.90
2018-09-26T09:18:09.164Z,99.90
2018-09-26T09:20:44.007Z,99.90
2018-09-26T09:23:18.934Z,99.90
2018-09-26T09:25:53.935Z,99.90
2018-09-26T09:28:29.338Z,99.90
2018-09-26T09:31:04.733Z,99.90
2018-09-26T09:33:39.637Z,99.90
2018-09-26T09:36:14.582Z,99.90
2018-09-26T09:38:50.100Z,99.90
2018-09-26T09:41:25.096Z,99.90
2018-09-26T09:44:00.202Z,99.90
2018-09-26T09:46:35.185Z,99.90
2018-09-26T09:49:10.039Z,99.90
2018-09-26T09:51:45.527Z,99.90
2018-09-26T09:54:20.678Z,99.90
2018-09-26T09:56:55.433Z,99.90
2018-09-26T09:59:30.627Z,99.90
2018-09-26T10:02:05.723Z,99.90
2018-09-26T10:04:40.883Z,99.90
2018-09-26T10:07:16.099Z,99.90
2018-09-26T10:09:50.981Z,99.90
2018-09-26T10:12:32.839Z,99.90
2018-09-26T10:15:07.809Z,99.90
2018-09-26T10:17:42.679Z,99.90
2018-09-26T10:20:18.075Z,99.90
2018-09-26T10:22:53.177Z,99.90
2018-09-26T10:25:28.333Z,99.90
2018-09-26T10:28:03.261Z,99.90
2018-09-26T10:30:38.161Z,99.90
2018-09-26T10:33:13.375Z,99.90
2018-09-26T10:35:48.568Z,99.90
2018-09-26T10:38:23.763Z,99.90
2018-09-26T10:40:58.756Z,99.90
2018-09-26T10:43:34.440Z,99.90
2018-09-26T10:46:09.434Z,99.90
2018-09-26T10:48:44.604Z,99.90
2018-09-26T10:51:19.432Z,99.90
2018-09-26T10:53:54.304Z,99.90
2018-09-26T10:56:29.246Z,99.90
2018-09-26T10:59:04.440Z,99.90
2018-09-26T11:01:39.416Z,99.90
2018-09-26T11:04:14.234Z,99.90
2018-09-26T11:06:50.295Z,99.90
2018-09-26T11:09:25.721Z,99.90
2018-09-26T11:12:00.780Z,99.90
2018-09-26T11:14:35.528Z,99.90
2018-09-26T11:17:10.616Z,99.90
2018-09-26T11:19:45.585Z,99.90
2018-09-26T11:22:20.630Z,99.90
2018-09-26T11:24:55.607Z,99.90
2018-09-26T11:27:30.840Z,99.90
2018-09-26T11:30:05.580Z,99.90
2018-09-26T11:32:41.066Z,99.90
2018-09-26T11:35:15.678Z,99.90
2018-09-26T11:37:50.800Z,99.90
2018-09-26T11:40:25.930Z,99.90
2018-09-26T11:42:55.109Z,99.90
2018-09-26T11:45:30.391Z,99.90
2018-09-26T11:48:05.194Z,99.90
2018-09-26T11:50:40.321Z,99.90
2018-09-26T11:53:15.357Z,99.90
2018-09-26T11:55:50.483Z,99.90
2018-09-26T11:58:32.621Z,98.50
2018-09-26T12:01:07.653Z,97.90
2018-09-26T12:03:42.382Z,98.40
2018-09-26T12:06:17.318Z,98.10
2018-09-26T12:08:52.551Z,98.30
2018-09-26T12:11:28.436Z,98.20
2018-09-26T12:14:04.225Z,98.50
2018-09-26T12:16:39.172Z,98.60
2018-09-26T12:19:14.271Z,98.30
2018-09-26T12:21:49.379Z,97.40
2018-09-26T12:24:25.385Z,96.00
2018-09-26T12:27:00.345Z,95.70
2018-09-26T12:29:35.238Z,96.10
2018-09-26T12:32:10.237Z,95.10
2018-09-26T12:34:44.882Z,94.70
2018-09-26T12:37:19.749Z,94.80
2018-09-26T12:39:54.711Z,95.20
2018-09-26T12:42:29.806Z,96.30
2018-09-26T12:45:05.104Z,96.60
2018-09-26T12:47:40.201Z,96.60
2018-09-26T12:50:15.174Z,96.40
2018-09-26T12:52:50.456Z,95.90
2018-09-26T12:55:25.822Z,95.30
2018-09-26T12:58:00.620Z,95.70
2018-09-26T13:00:35.428Z,95.80
2018-09-26T13:03:11.422Z,94.80
2018-09-26T13:05:46.387Z,95.20
2018-09-26T13:08:21.358Z,95.10
2018-09-26T13:10:56.562Z,95.00
2018-09-26T13:13:31.974Z,94.00
2018-09-26T13:16:04.532Z,94.40
2018-09-26T13:18:39.206Z,93.60
2018-09-26T13:21:14.206Z,93.70
2018-09-26T13:23:49.133Z,92.70
2018-09-26T13:26:24.535Z,92.00
2018-09-26T13:28:59.860Z,92.50
2018-09-26T13:31:34.770Z,92.50
2018-09-26T13:34:10.023Z,91.70
2018-09-26T13:36:45.478Z,89.20
2018-09-26T13:39:20.417Z,85.00
2018-09-26T13:41:55.824Z,84.00
2018-09-26T13:44:31.936Z,78.30
2018-09-26T13:47:06.866Z,76.80
2018-09-26T13:49:42.780Z,76.60
2018-09-26T13:52:18.526Z,77.40
2018-09-26T13:54:56.127Z,77.60
2018-09-26T13:57:31.918Z,76.80
2018-09-26T14:00:16.654Z,74.80
2018-09-26T14:02:52.257Z,74.00
2018-09-26T14:05:28.738Z,74.90
2018-09-26T14:08:06.436Z,76.30
2018-09-26T14:10:42.262Z,74.00
2018-09-26T14:13:17.786Z,73.90
2018-09-26T14:15:57.957Z,75.00
2018-09-26T14:18:33.490Z,73.00
2018-09-26T14:21:08.827Z,74.40
2018-09-26T14:23:44.160Z,73.70
2018-09-26T14:26:20.643Z,72.50
2018-09-26T14:28:56.305Z,72.40
2018-09-26T14:31:30.949Z,72.50
2018-09-26T14:34:06.169Z,72.50
2018-09-26T14:36:41.916Z,70.70
2018-09-26T14:39:21.371Z,71.60
2018-09-26T14:42:02.311Z,72.40
2018-09-26T14:44:37.744Z,69.50
2018-09-26T14:47:13.495Z,69.00
2018-09-26T14:49:49.112Z,68.70
2018-09-26T14:52:24.249Z,69.10
2018-09-26T14:54:59.619Z,68.20
2018-09-26T14:57:36.501Z,69.40
2018-09-26T15:00:11.673Z,68.40
2018-09-26T15:02:47.272Z,68.20
2018-09-26T15:05:23.075Z,69.30
2018-09-26T15:07:59.006Z,69.60
2018-09-26T15:10:36.891Z,69.00
2018-09-26T15:13:12.339Z,69.60
2018-09-26T15:15:47.684Z,69.40
2018-09-26T15:18:23.194Z,70.20
2018-09-26T15:20:59.011Z,69.00
2018-09-26T15:23:34.843Z,69.10
2018-09-26T15:26:09.983Z,69.60
2018-09-26T15:28:45.433Z,69.80
2018-09-26T15:31:20.727Z,69.70
2018-09-26T15:33:56.702Z,69.40
2018-09-26T15:36:33.107Z,69.40
2018-09-26T15:39:10.690Z,67.70
2018-09-26T15:41:46.772Z,67.80
2018-09-26T15:44:22.989Z,67.30
2018-09-26T15:46:58.881Z,67.70
2018-09-26T15:49:34.283Z,67.40
2018-09-26T15:52:09.679Z,67.30
2018-09-26T15:54:45.283Z,67.60
2018-09-26T15:57:21.150Z,68.20
2018-09-26T15:59:56.558Z,67.90
2018-09-26T16:02:32.235Z,69.30
2018-09-26T16:05:07.972Z,69.30
2018-09-26T16:07:44.201Z,69.20
2018-09-26T16:10:19.246Z,67.80
2018-09-26T16:12:54.745Z,67.20
2018-09-26T16:15:30.084Z,67.70
2018-09-26T16:18:05.311Z,67.40
2018-09-26T16:20:40.351Z,67.90
2018-09-26T16:23:15.393Z,67.00
2018-09-26T16:25:50.602Z,65.30
2018-09-26T16:28:25.754Z,66.20
2018-09-26T16:31:01.098Z,66.60
2018-09-26T16:33:35.932Z,66.20
2018-09-26T16:36:10.938Z,64.60
2018-09-26T16:38:46.034Z,64.20
2018-09-26T16:41:21.044Z,65.30
2018-09-26T16:43:56.042Z,65.60
2018-09-26T16:46:31.149Z,64.90
2018-09-26T16:49:01.033Z,65.40
2018-09-26T16:51:30.712Z,64.20
2018-09-26T16:54:05.803Z,64.70
2018-09-26T16:56:41.043Z,65.30
2018-09-26T16:59:16.391Z,66.10
2018-09-26T17:01:51.931Z,66.00
2018-09-26T17:04:27.043Z,66.30
2018-09-26T17:07:02.028Z,66.80
2018-09-26T17:09:37.227Z,68.30
2018-09-26T17:12:12.358Z,67.10
2018-09-26T17:14:47.695Z,67.10
2018-09-26T17:17:23.142Z,67.40
2018-09-26T17:19:58.046Z,67.80
2018-09-26T17:22:33.366Z,69.00
2018-09-26T17:25:08.608Z,70.20
2018-09-26T17:27:38.261Z,71.50
2018-09-26T17:30:13.104Z,72.70
2018-09-26T17:32:48.363Z,73.60
2018-09-26T17:35:24.240Z,76.60
2018-09-26T17:37:59.157Z,76.70
2018-09-26T17:40:28.500Z,77.30
2018-09-26T17:42:57.834Z,77.40
2018-09-26T17:45:32.978Z,79.10
2018-09-26T17:48:02.397Z,79.70
2018-09-26T17:50:38.763Z,80.30
2018-09-26T17:53:13.839Z,81.80
2018-09-26T17:55:48.435Z,83.60
2018-09-26T17:58:17.838Z,83.50
2018-09-26T18:00:53.061Z,85.10
2018-09-26T18:03:28.100Z,86.10
2018-09-26T18:06:02.947Z,88.20
2018-09-26T18:08:38.088Z,88.70
2018-09-26T18:11:13.506Z,90.10
2018-09-26T18:13:48.421Z,90.30
2018-09-26T18:16:23.365Z,90.90
2018-09-26T18:18:58.259Z,91.60
2018-09-26T18:21:33.692Z,92.50
2018-09-26T18:24:08.829Z,92.30
2018-09-26T18:26:43.969Z,92.70
2018-09-26T18:29:19.028Z,93.40
2018-09-26T18:31:54.014Z,94.10
2018-09-26T18:34:28.872Z,94.80
2018-09-26T18:37:04.853Z,95.50
2018-09-26T18:39:39.914Z,96.00
2018-09-26T18:42:16.267Z,97.00
2018-09-26T18:44:51.695Z,97.40
2018-09-26T18:47:27.202Z,98.50
2018-09-26T18:50:02.345Z,98.80
2018-09-26T18:52:31.674Z,99.90
2018-09-26T18:55:06.909Z,99.90
2018-09-26T18:57:42.150Z,99.90
2018-09-26T19:00:17.064Z,99.90
2018-09-26T19:02:46.174Z,99.90
2018-09-26T19:05:21.259Z,99.90
2018-09-26T19:07:56.498Z,99.90
2018-09-26T19:10:32.446Z,99.90
2018-09-26T19:13:07.526Z,99.90
2018-09-26T19:15:42.678Z,99.90
2018-09-26T19:18:18.079Z,99.90
2018-09-26T19:20:53.911Z,99.90
2018-09-26T19:23:29.690Z,99.90
2018-09-26T19:26:05.113Z,99.90
2018-09-26T19:28:40.707Z,99.90
2018-09-26T19:31:16.203Z,99.90
2018-09-26T19:33:51.809Z,99.90
2018-09-26T19:36:28.287Z,99.90
2018-09-26T19:39:05.217Z,99.90
2018-09-26T19:41:40.933Z,99.90
2018-09-26T19:44:16.652Z,99.90
2018-09-26T19:46:52.479Z,99.90
2018-09-26T19:49:28.455Z,99.90
2018-09-26T19:52:04.343Z,99.90
2018-09-26T19:54:40.500Z,99.90
2018-09-26T19:57:16.146Z,99.90
2018-09-26T19:59:52.052Z,99.90
2018-09-26T20:02:27.562Z,99.90
2018-09-26T20:05:03.986Z,99.90
2018-09-26T20:07:39.800Z,99.90
2018-09-26T20:10:15.757Z,99.90
2018-09-26T20:12:52.053Z,99.90
2018-09-26T20:15:28.189Z,99.90
2018-09-26T20:18:03.560Z,99.90
2018-09-26T20:20:39.621Z,99.90
2018-09-26T20:23:16.134Z,99.90
2018-09-26T20:25:52.009Z,99.90
2018-09-26T20:28:27.752Z,99.90
2018-09-26T20:31:03.539Z,99.90
2018-09-26T20:33:39.221Z,99.90
2018-09-26T20:36:15.078Z,99.90
2018-09-26T20:38:50.776Z,99.90
2018-09-26T20:41:26.411Z,99.90
2018-09-26T20:44:02.386Z,99.90
2018-09-26T20:46:37.516Z,99.90
2018-09-26T20:49:13.407Z,99.90
2018-09-26T20:51:48.949Z,99.90
2018-09-26T20:54:24.571Z,99.90
2018-09-26T20:56:59.955Z,99.90
2018-09-26T20:59:35.426Z,99.90
2018-09-26T21:02:10.888Z,99.90
2018-09-26T21:04:47.093Z,99.90
2018-09-26T21:07:22.908Z,99.90
2018-09-26T21:09:58.253Z,99.90
2018-09-26T21:12:34.217Z,99.90
2018-09-26T21:15:10.225Z,99.90
2018-09-26T21:17:45.955Z,99.90
2018-09-26T21:20:22.746Z,99.90
2018-09-26T21:22:58.573Z,99.90
2018-09-26T21:25:34.501Z,99.90
2018-09-26T21:28:10.082Z,99.90
2018-09-26T21:30:45.693Z,99.90
2018-09-26T21:33:21.605Z,99.90
2018-09-26T21:35:57.092Z,99.90
2018-09-26T21:38:32.760Z,99.90
2018-09-26T21:41:08.687Z,99.90
2018-09-26T21:43:44.211Z,99.90
2018-09-26T21:46:20.137Z,99.90
2018-09-26T21:48:56.095Z,99.90
2018-09-26T21:51:31.252Z,99.90
2018-09-26T21:54:07.144Z,99.90
2018-09-26T21:56:43.218Z,99.90
2018-09-26T21:59:19.245Z,99.90
2018-09-26T22:01:50.234Z,99.90
2018-09-26T22:04:26.470Z,99.90
2018-09-26T22:07:02.288Z,99.90
2018-09-26T22:09:38.010Z,99.90
2018-09-26T22:12:23.108Z,99.90
2018-09-26T22:14:59.431Z,99.90
2018-09-26T22:17:35.967Z,99.90
2018-09-26T22:20:17.336Z,99.90
2018-09-26T22:22:53.902Z,99.90
2018-09-26T22:25:30.203Z,99.90
2018-09-26T22:28:06.546Z,99.90
2018-09-26T22:30:42.450Z,99.90
2018-09-26T22:33:19.037Z,99.90
2018-09-26T22:35:55.545Z,99.90
2018-09-26T22:38:31.665Z,99.90
2018-09-26T22:41:08.420Z,99.90
2018-09-26T22:43:44.605Z,99.90
2018-09-26T22:46:20.590Z,99.90
2018-09-26T22:48:56.722Z,99.90
2018-09-26T22:51:33.296Z,99.90
2018-09-26T22:54:08.901Z,99.90
2018-09-26T22:56:45.060Z,99.90
2018-09-26T22:59:21.519Z,99.90
2018-09-26T23:01:57.865Z,99.90
2018-09-26T23:04:33.896Z,99.90
2018-09-26T23:07:10.177Z,99.90
2018-09-26T23:09:46.179Z,99.90
2018-09-26T23:12:22.611Z,99.90
2018-09-26T23:14:58.317Z,99.90
2018-09-26T23:17:34.286Z,99.90
2018-09-26T23:20:09.707Z,99.90
2018-09-26T23:22:45.248Z,99.90
2018-09-26T23:25:20.372Z,99.90
2018-09-26T23:27:55.536Z,99.90
2018-09-26T23:30:30.910Z,99.90
2018-09-26T23:33:05.862Z,99.90
2018-09-26T23:35:41.572Z,99.90
2018-09-26T23:38:16.669Z,99.90
2018-09-26T23:40:51.828Z,99.90
2018-09-26T23:43:27.051Z,99.90
2018-09-26T23:46:02.306Z,99.90
2018-09-26T23:48:37.738Z,99.90
2018-09-26T23:51:12.977Z,99.90
2018-09-26T23:53:48.193Z,99.90
2018-09-26T23:56:23.265Z,99.90
2018-09-26T23:58:58.791Z,99.90
